Time;durP1;ratioP1;P1;durP2;ratioP2;P2;SDS_P1;SDS_P2;PMS_P1;PMS_P2;Temp;Humidity;BMP_temperature;BMP_pressure;BME280_temperature;BME280_humidity;BME280_pressure;Samples;Min_cycle;Max_cycle;Signal;HPM_P1;HPM_P2
2023/09/22 00:00:55;;;;;;;5.07;2.08;;;17.30;99.90;;;;;;5034773;28;20194;-85
2023/09/22 00:03:23;;;;;;;4.97;2.17;;;17.30;99.90;;;;;;5034957;28;20197;-86
2023/09/22 00:05:49;;;;;;;2.78;1.85;;;17.30;99.90;;;;;;5033718;28;20183;-85
2023/09/22 00:08:15;;;;;;;3.50;2.20;;;17.30;99.90;;;;;;5033615;28;20244;-84
2023/09/22 00:10:40;;;;;;;4.13;2.25;;;17.20;99.90;;;;;;5034894;28;20555;-86
2023/09/22 00:13:06;;;;;;;5.00;2.13;;;17.20;99.90;;;;;;5033215;28;20179;-84
2023/09/22 00:15:34;;;;;;;3.30;2.13;;;17.30;99.90;;;;;;5033490;28;20182;-85
2023/09/22 00:18:01;;;;;;;4.13;2.10;;;17.20;99.90;;;;;;5033473;28;20206;-85
2023/09/22 00:20:27;;;;;;;4.22;2.42;;;17.20;99.90;;;;;;5033154;28;20234;-85
2023/09/22 00:22:52;;;;;;;3.95;2.10;;;17.20;99.90;;;;;;5033408;28;20181;-85
2023/09/22 00:25:19;;;;;;;4.65;1.85;;;17.20;99.90;;;;;;5034609;28;20265;-86
2023/09/22 00:27:44;;;;;;;4.38;2.03;;;17.20;99.90;;;;;;5032998;28;20179;-85
2023/09/22 00:30:10;;;;;;;3.78;1.77;;;17.20;99.90;;;;;;5034474;28;20182;-86
2023/09/22 00:32:38;;;;;;;4.47;1.92;;;17.20;99.90;;;;;;5033198;28;20205;-85
2023/09/22 00:35:06;;;;;;;3.28;1.88;;;17.10;99.90;;;;;;5033225;28;20190;-85
2023/09/22 00:37:33;;;;;;;3.47;1.67;;;17.10;99.90;;;;;;5032966;28;20265;-86
2023/09/22 00:39:59;;;;;;;3.67;1.55;;;17.10;99.90;;;;;;5033136;28;20221;-84
2023/09/22 00:42:25;;;;;;;4.22;2.00;;;17.10;99.90;;;;;;5034214;28;20186;-85
2023/09/22 00:44:51;;;;;;;3.85;1.80;;;17.10;99.90;;;;;;5034143;28;20620;-84
2023/09/22 00:47:17;;;;;;;4.35;1.58;;;17.00;99.90;;;;;;5034270;28;20171;-84
2023/09/22 00:49:45;;;;;;;2.67;1.75;;;17.00;99.90;;;;;;5034198;28;20613;-85
2023/09/22 00:52:13;;;;;;;3.25;1.70;;;17.00;99.90;;;;;;5032888;28;20182;-84
2023/09/22 00:54:40;;;;;;;2.30;1.35;;;17.00;99.90;;;;;;5032878;28;20269;-84
2023/09/22 00:57:06;;;;;;;1.60;1.50;;;17.00;99.90;;;;;;5032946;28;20179;-85
2023/09/22 00:59:34;;;;;;;2.88;1.40;;;17.00;99.90;;;;;;5033796;28;20665;-84
2023/09/22 01:02:00;;;;;;;2.90;1.30;;;16.90;99.90;;;;;;5033981;28;20182;-85
2023/09/22 01:04:26;;;;;;;2.75;1.33;;;16.90;99.90;;;;;;5034222;28;20159;-84
2023/09/22 01:06:52;;;;;;;3.25;1.38;;;16.90;99.90;;;;;;5032774;28;20183;-84
2023/09/22 01:09:18;;;;;;;1.45;1.25;;;16.80;99.90;;;;;;5033977;28;20175;-85
2023/09/22 01:11:45;;;;;;;3.03;1.35;;;16.90;99.90;;;;;;5032797;28;20182;-83
2023/09/22 01:14:11;;;;;;;2.88;1.17;;;16.80;99.90;;;;;;5032390;28;20194;-84
2023/09/22 01:16:37;;;;;;;2.22;1.42;;;16.80;99.90;;;;;;5032728;28;20179;-83
2023/09/22 01:19:10;;;;;;;3.60;1.33;;;16.80;99.90;;;;;;5033563;28;20241;-84
2023/09/22 01:21:36;;;;;;;2.53;1.20;;;16.80;99.90;;;;;;5032494;28;20182;-84
2023/09/22 01:24:04;;;;;;;2.22;1.10;;;16.80;99.90;;;;;;5034044;28;20492;-84
2023/09/22 01:26:30;;;;;;;7.63;1.33;;;16.80;99.90;;;;;;5032526;28;20178;-84
2023/09/22 01:28:56;;;;;;;1.27;1.00;;;16.70;99.90;;;;;;5033599;28;20178;-84
2023/09/22 01:31:22;;;;;;;2.53;1.20;;;16.70;99.90;;;;;;5036019;28;20202;-84
2023/09/22 01:33:47;;;;;;;1.77;1.13;;;16.60;99.90;;;;;;5037551;28;20214;-85
2023/09/22 01:36:13;;;;;;;1.95;1.20;;;16.60;99.90;;;;;;5037852;28;20201;-84
2023/09/22 01:38:39;;;;;;;3.60;1.20;;;16.50;99.90;;;;;;5037815;28;20181;-85
2023/09/22 01:41:06;;;;;;;2.10;1.15;;;16.50;99.90;;;;;;5037426;28;20249;-83
2023/09/22 01:43:32;;;;;;;2.70;1.33;;;16.40;99.90;;;;;;5035792;28;20633;-86
2023/09/22 01:45:58;;;;;;;1.25;1.10;;;16.40;99.90;;;;;;5037595;28;20258;-85
2023/09/22 01:48:24;;;;;;;1.98;1.10;;;16.40;99.90;;;;;;5037302;28;20175;-84
2023/09/22 01:50:51;;;;;;;4.65;1.25;;;16.40;99.90;;;;;;5037337;28;20554;-85
2023/09/22 01:53:16;;;;;;;3.80;0.98;;;16.30;99.90;;;;;;5037153;28;20165;-85
2023/09/22 01:55:42;;;;;;;1.70;1.15;;;16.30;99.90;;;;;;5037014;28;20170;-85
2023/09/22 01:58:09;;;;;;;1.67;0.90;;;16.20;99.90;;;;;;5035761;28;20182;-86
2023/09/22 02:00:35;;;;;;;1.05;0.90;;;16.20;99.90;;;;;;5035768;28;20249;-84
2023/09/22 02:03:01;;;;;;;2.63;1.05;;;16.20;99.90;;;;;;5035717;28;20182;-84
2023/09/22 02:05:27;;;;;;;2.80;1.10;;;16.20;99.90;;;;;;5037142;28;20258;-84
2023/09/22 02:07:53;;;;;;;6.47;1.13;;;16.10;99.90;;;;;;5036693;28;20253;-85
2023/09/22 02:10:19;;;;;;;2.13;1.20;;;16.10;99.90;;;;;;5035642;28;20189;-85
2023/09/22 02:12:45;;;;;;;3.20;1.27;;;16.10;99.90;;;;;;5036768;28;20185;-84
2023/09/22 02:15:12;;;;;;;1.25;0.82;;;16.00;99.90;;;;;;5035315;28;20175;-85
2023/09/22 02:17:38;;;;;;;1.40;1.00;;;16.00;99.90;;;;;;5036795;28;20513;-84
2023/09/22 02:20:12;;;;;;;1.95;1.00;;;16.00;99.90;;;;;;5036332;28;20313;-84
2023/09/22 02:22:38;;;;;;;4.00;1.00;;;16.00;99.90;;;;;;5035318;28;20744;-85
2023/09/22 02:25:03;;;;;;;2.85;1.10;;;16.00;99.90;;;;;;5035399;28;20276;-85
2023/09/22 02:27:29;;;;;;;3.25;1.27;;;15.90;99.90;;;;;;5035143;28;20202;-85
2023/09/22 02:29:56;;;;;;;1.75;1.15;;;15.90;99.90;;;;;;5034824;28;20170;-86
2023/09/22 02:32:21;;;;;;;1.77;1.00;;;15.90;99.90;;;;;;5036432;28;20171;-84
2023/09/22 02:34:48;;;;;;;2.67;1.20;;;15.90;99.90;;;;;;5036371;28;20167;-84
2023/09/22 02:37:14;;;;;;;2.20;0.93;;;15.90;99.90;;;;;;5036396;28;20178;-84
2023/09/22 02:39:41;;;;;;;5.30;1.00;;;15.80;99.90;;;;;;5035050;28;20202;-84
2023/09/22 02:42:07;;;;;;;2.65;1.10;;;15.80;99.90;;;;;;5035106;28;20202;-84
2023/09/22 02:44:33;;;;;;;1.45;0.95;;;15.80;99.90;;;;;;5034780;28;20252;-84
2023/09/22 02:46:59;;;;;;;1.60;0.85;;;15.80;99.90;;;;;;5036177;28;20185;-85
2023/09/22 02:49:26;;;;;;;1.42;0.80;;;15.80;99.90;;;;;;5036134;28;20171;-84
2023/09/22 02:51:52;;;;;;;3.10;1.05;;;15.70;99.90;;;;;;5034644;28;20200;-84
2023/09/22 02:54:17;;;;;;;1.90;0.90;;;15.70;99.90;;;;;;5034867;28;20183;-85
2023/09/22 02:56:43;;;;;;;2.03;1.17;;;15.70;99.90;;;;;;5035661;28;20518;-84
2023/09/22 02:59:09;;;;;;;1.30;1.00;;;15.70;99.90;;;;;;5034128;28;20174;-85
2023/09/22 03:01:36;;;;;;;1.05;0.77;;;15.70;99.90;;;;;;5035789;28;20633;-85
2023/09/22 03:04:03;;;;;;;2.75;0.90;;;15.70;99.90;;;;;;5035926;28;20245;-85
2023/09/22 03:06:29;;;;;;;1.77;1.00;;;15.70;99.90;;;;;;5034698;28;20178;-85
2023/09/22 03:08:54;;;;;;;1.48;0.80;;;15.70;99.90;;;;;;5035894;28;20628;-85
2023/09/22 03:11:20;;;;;;;3.25;0.93;;;15.70;99.90;;;;;;5034544;28;20179;-84
2023/09/22 03:13:47;;;;;;;2.03;1.10;;;15.60;99.90;;;;;;5050192;28;20296;-85
2023/09/22 03:16:13;;;;;;;2.80;1.10;;;15.60;99.90;;;;;;5055652;28;20507;-84
2023/09/22 03:18:39;;;;;;;2.17;1.10;;;15.60;99.90;;;;;;5053926;28;20182;-83
2023/09/22 03:21:05;;;;;;;1.92;0.80;;;15.60;99.90;;;;;;5055863;28;20202;-85
2023/09/22 03:23:30;;;;;;;2.83;1.10;;;15.60;99.90;;;;;;5054946;28;20219;-85
2023/09/22 03:25:56;;;;;;;2.40;0.90;;;15.60;99.90;;;;;;5054195;28;20178;-85
2023/09/22 03:28:22;;;;;;;1.38;0.88;;;15.60;99.90;;;;;;5055156;28;20504;-84
2023/09/22 03:30:47;;;;;;;2.33;1.15;;;15.50;99.90;;;;;;5053823;28;20336;-85
2023/09/22 03:33:13;;;;;;;3.25;1.00;;;15.60;99.90;;;;;;5053969;28;20178;-84
2023/09/22 03:35:40;;;;;;;3.72;1.20;;;15.50;99.90;;;;;;5054093;28;20507;-84
2023/09/22 03:38:09;;;;;;;7.70;1.00;;;15.50;99.90;;;;;;5054065;28;20685;-85
2023/09/22 03:40:41;;;;;;;1.70;1.10;;;15.50;99.90;;;;;;5055215;28;20293;-84
2023/09/22 03:43:07;;;;;;;2.90;0.88;;;15.50;99.90;;;;;;5045871;28;20182;-84
2023/09/22 03:45:33;;;;;;;2.58;1.02;;;15.50;99.90;;;;;;5034819;28;20186;-85
2023/09/22 03:47:59;;;;;;;2.38;1.17;;;15.50;99.90;;;;;;5033760;28;20217;-84
2023/09/22 03:50:24;;;;;;;2.15;0.93;;;15.50;99.90;;;;;;5035169;28;20232;-85
2023/09/22 03:52:50;;;;;;;3.33;0.90;;;15.50;99.90;;;;;;5034816;28;20174;-84
2023/09/22 03:55:16;;;;;;;2.53;0.95;;;15.50;99.90;;;;;;5033580;28;20176;-84
2023/09/22 03:57:43;;;;;;;10.38;1.38;;;15.60;99.90;;;;;;5034794;28;20565;-85
2023/09/22 04:00:24;;;;;;;7.43;1.50;;;15.60;99.90;;;;;;5033287;28;20293;-85
2023/09/22 04:02:50;;;;;;;2.80;1.00;;;15.50;99.90;;;;;;5033424;28;20170;-85
2023/09/22 04:05:16;;;;;;;1.83;1.05;;;15.50;99.90;;;;;;5033640;28;20495;-84
2023/09/22 04:07:42;;;;;;;1.60;1.02;;;15.50;99.90;;;;;;5033232;28;20178;-85
2023/09/22 04:10:08;;;;;;;4.63;1.23;;;15.50;99.90;;;;;;5034783;28;20613;-85
2023/09/22 04:12:35;;;;;;;3.97;1.20;;;15.50;99.90;;;;;;5034575;28;20243;-84
2023/09/22 04:15:04;;;;;;;1.10;0.90;;;15.40;99.90;;;;;;5033090;28;20178;-84
2023/09/22 04:17:31;;;;;;;2.13;1.20;;;15.50;99.90;;;;;;5033327;28;20178;-84
2023/09/22 04:19:58;;;;;;;1.05;0.93;;;15.40;99.90;;;;;;5032961;28;20557;-85
2023/09/22 04:22:23;;;;;;;3.85;1.20;;;15.40;99.90;;;;;;5033245;28;20735;-84
2023/09/22 04:24:51;;;;;;;1.85;1.10;;;15.40;99.90;;;;;;5034506;28;20246;-85
2023/09/22 04:27:17;;;;;;;1.73;0.93;;;15.40;99.90;;;;;;5034276;28;20301;-84
2023/09/22 04:29:43;;;;;;;1.60;1.10;;;15.50;99.90;;;;;;5032852;28;20269;-84
2023/09/22 04:32:08;;;;;;;3.60;1.20;;;15.40;99.90;;;;;;5033037;28;20783;-85
2023/09/22 04:34:35;;;;;;;1.67;0.90;;;15.30;99.90;;;;;;5033661;28;20628;-84
2023/09/22 04:37:04;;;;;;;2.42;1.00;;;15.20;99.90;;;;;;5034201;28;20193;-84
2023/09/22 04:39:31;;;;;;;2.08;1.00;;;15.20;99.90;;;;;;5032866;28;20185;-84
2023/09/22 04:41:58;;;;;;;1.60;1.00;;;15.10;99.90;;;;;;5033962;28;20163;-84
2023/09/22 04:44:24;;;;;;;2.20;0.80;;;15.10;99.90;;;;;;5033856;28;20216;-84
2023/09/22 04:46:50;;;;;;;1.33;0.90;;;15.10;99.90;;;;;;5034084;28;20170;-84
2023/09/22 04:49:16;;;;;;;5.15;0.80;;;15.10;99.90;;;;;;5032853;28;20175;-84
2023/09/22 04:51:42;;;;;;;1.42;1.15;;;15.00;99.90;;;;;;5032914;28;20695;-84
2023/09/22 04:54:08;;;;;;;2.30;1.08;;;15.00;99.90;;;;;;5024255;28;20245;-83
2023/09/22 04:56:33;;;;;;;1.13;0.82;;;15.10;99.90;;;;;;5020798;28;20225;-84
2023/09/22 04:59:00;;;;;;;3.00;1.02;;;15.10;99.90;;;;;;5013927;28;20175;-84
2023/09/22 05:01:28;;;;;;;1.90;0.93;;;15.00;99.90;;;;;;5014208;28;20588;-84
2023/09/22 05:03:54;;;;;;;2.75;1.00;;;15.00;99.90;;;;;;5014286;28;20171;-85
2023/09/22 05:06:19;;;;;;;3.28;1.10;;;15.00;99.90;;;;;;5012319;28;20191;-85
2023/09/22 05:08:45;;;;;;;4.68;1.42;;;15.00;99.90;;;;;;5014180;28;20171;-84
2023/09/22 05:11:11;;;;;;;2.60;0.88;;;14.90;99.90;;;;;;5012937;28;20183;-85
2023/09/22 05:13:37;;;;;;;1.70;1.02;;;15.00;99.90;;;;;;5027163;28;20183;-84
2023/09/22 05:16:13;;;;;;;2.03;1.00;;;14.90;99.90;;;;;;5032650;28;20181;-85
2023/09/22 05:18:39;;;;;;;2.65;1.00;;;14.90;99.90;;;;;;5032460;28;20174;-84
2023/09/22 05:21:05;;;;;;;2.40;1.02;;;14.90;99.90;;;;;;5033857;28;20198;-84
2023/09/22 05:23:32;;;;;;;1.10;0.68;;;14.90;99.90;;;;;;5032246;28;20635;-85
2023/09/22 05:25:59;;;;;;;2.22;1.00;;;14.90;99.90;;;;;;5032399;28;20185;-85
2023/09/22 05:28:25;;;;;;;1.35;0.93;;;15.00;99.90;;;;;;5033611;28;20167;-85
2023/09/22 05:30:50;;;;;;;2.58;1.00;;;15.00;99.90;;;;;;5032208;28;20184;-85
2023/09/22 05:33:17;;;;;;;2.08;0.90;;;15.10;99.90;;;;;;5032402;28;20517;-85
2023/09/22 05:35:43;;;;;;;3.55;0.98;;;15.00;99.90;;;;;;5033571;28;20680;-85
2023/09/22 05:38:09;;;;;;;1.35;0.80;;;15.10;99.90;;;;;;5032328;28;20202;-85
2023/09/22 05:40:36;;;;;;;1.23;0.98;;;15.10;99.90;;;;;;5033525;28;20657;-85
2023/09/22 05:43:07;;;;;;;4.25;1.05;;;15.10;99.90;;;;;;5028155;28;20664;-84
2023/09/22 06:15:42;;;;;;;2.13;0.98;;;15.30;99.90;;;;;;2503457;28;22058;-82
2023/09/22 06:18:08;;;;;;;1.88;0.98;;;15.30;99.90;;;;;;5015365;28;20202;-87
2023/09/22 06:20:34;;;;;;;1.40;0.80;;;15.30;99.90;;;;;;5016973;28;20556;-84
2023/09/22 06:22:59;;;;;;;3.53;1.05;;;15.20;99.90;;;;;;5016745;28;20179;-82
2023/09/22 06:25:28;;;;;;;1.75;1.00;;;15.20;99.90;;;;;;5016825;28;20186;-84
2023/09/22 06:27:54;;;;;;;1.30;0.90;;;15.30;99.90;;;;;;5016491;28;20171;-82
2023/09/22 06:30:20;;;;;;;1.50;0.90;;;15.30;99.90;;;;;;5014407;28;20187;-82
2023/09/22 06:32:46;;;;;;;2.55;1.17;;;15.30;99.90;;;;;;5016221;28;20190;-82
2023/09/22 06:35:12;;;;;;;4.88;0.90;;;15.30;99.90;;;;;;5015259;28;20171;-83
2023/09/22 06:37:39;;;;;;;2.15;0.82;;;15.30;99.90;;;;;;5015156;28;20225;-83
2023/09/22 06:40:11;;;;;;;1.40;0.90;;;15.30;99.90;;;;;;5016536;28;20689;-83
2023/09/22 06:42:41;;;;;;;3.40;1.42;;;15.30;99.90;;;;;;5016326;28;20175;-83
2023/09/22 06:45:11;;;;;;;1.38;0.88;;;15.30;99.90;;;;;;5015047;28;20690;-82
2023/09/22 06:47:38;;;;;;;1.45;0.80;;;15.30;99.90;;;;;;5015906;28;20172;-83
2023/09/22 06:50:09;;;;;;;1.45;0.60;;;15.30;99.90;;;;;;5016395;28;20163;-83
2023/09/22 06:52:40;;;;;;;3.70;0.80;;;15.30;99.90;;;;;;5016376;28;20159;-82
2023/09/22 06:55:08;;;;;;;3.42;0.90;;;15.30;99.90;;;;;;5015071;28;20178;-83
2023/09/22 06:57:36;;;;;;;2.95;1.02;;;15.30;99.90;;;;;;5014852;28;20203;-82
2023/09/22 07:00:16;;;;;;;2.65;0.80;;;15.30;99.90;;;;;;5016082;28;20245;-81
2023/09/22 07:02:48;;;;;;;1.73;1.00;;;15.30;99.90;;;;;;5015951;28;20555;-84
2023/09/22 07:05:19;;;;;;;1.50;1.00;;;15.40;99.90;;;;;;5015004;28;20625;-86
2023/09/22 07:07:45;;;;;;;3.90;0.90;;;15.40;99.90;;;;;;5014886;28;20242;-85
2023/09/22 07:10:11;;;;;;;3.05;0.82;;;15.40;99.90;;;;;;5016044;28;20525;-86
2023/09/22 07:12:38;;;;;;;1.45;0.80;;;15.40;99.90;;;;;;5016198;28;20166;-85
2023/09/22 07:15:06;;;;;;;1.02;0.93;;;15.40;99.90;;;;;;5016044;28;20186;-86
2023/09/22 07:17:32;;;;;;;4.82;0.90;;;15.40;99.90;;;;;;5031061;28;20236;-85
2023/09/22 07:19:58;;;;;;;1.73;1.10;;;15.40;99.90;;;;;;5035594;28;20198;-86
2023/09/22 07:22:24;;;;;;;2.45;0.80;;;15.40;99.90;;;;;;5030089;28;20519;-83
2023/09/22 07:24:53;;;;;;;4.40;1.00;;;15.40;99.90;;;;;;5023725;28;20171;-83
2023/09/22 07:27:18;;;;;;;2.50;1.23;;;15.50;99.90;;;;;;5029547;28;20183;-83
2023/09/22 07:29:44;;;;;;;3.28;0.82;;;15.40;99.90;;;;;;5032511;28;20185;-83
2023/09/22 07:32:10;;;;;;;3.63;1.00;;;15.50;99.90;;;;;;5033538;28;20186;-82
2023/09/22 07:34:36;;;;;;;1.73;1.05;;;15.50;99.90;;;;;;5033336;28;20503;-82
2023/09/22 07:37:02;;;;;;;2.88;1.33;;;15.60;99.90;;;;;;5034968;28;20175;-83
2023/09/22 07:39:28;;;;;;;2.50;0.88;;;15.60;99.90;;;;;;5035080;28;20684;-83
2023/09/22 07:41:53;;;;;;;2.08;0.90;;;15.60;99.90;;;;;;5035221;28;20636;-84
2023/09/22 07:44:21;;;;;;;2.35;1.05;;;15.70;99.90;;;;;;5033794;28;20620;-82
2023/09/22 07:46:50;;;;;;;2.38;1.15;;;15.70;99.90;;;;;;5033702;28;20182;-83
2023/09/22 07:49:17;;;;;;;1.50;1.20;;;15.70;99.90;;;;;;5034670;28;20210;-82
2023/09/22 07:51:43;;;;;;;3.10;1.23;;;15.80;99.90;;;;;;5034840;28;20155;-82
2023/09/22 07:54:09;;;;;;;2.53;1.00;;;15.80;99.90;;;;;;5033631;28;20192;-83
2023/09/22 07:56:35;;;;;;;2.38;1.10;;;15.80;99.90;;;;;;5033668;28;20181;-83
2023/09/22 07:59:03;;;;;;;1.42;1.10;;;15.80;99.90;;;;;;5033773;28;20518;-83
2023/09/22 08:01:29;;;;;;;1.65;1.10;;;15.90;99.90;;;;;;5033695;28;20599;-83
2023/09/22 08:03:54;;;;;;;4.38;1.05;;;15.90;99.90;;;;;;5034342;28;20660;-82
2023/09/22 08:06:20;;;;;;;1.25;1.05;;;15.90;99.90;;;;;;5034550;28;20182;-83
2023/09/22 08:08:49;;;;;;;2.85;1.30;;;16.00;99.90;;;;;;5034409;28;20519;-83
2023/09/22 08:11:18;;;;;;;2.22;1.40;;;16.00;99.90;;;;;;5033309;28;20183;-83
2023/09/22 08:13:46;;;;;;;2.58;1.30;;;16.00;99.90;;;;;;5034284;28;20510;-82
2023/09/22 08:16:13;;;;;;;2.95;1.30;;;16.00;99.90;;;;;;5034257;28;20218;-83
2023/09/22 08:18:40;;;;;;;3.35;1.50;;;16.00;99.90;;;;;;5033985;28;20312;-82
2023/09/22 08:21:07;;;;;;;4.18;1.38;;;16.00;99.90;;;;;;5033164;28;20207;-85
2023/09/22 08:23:34;;;;;;;1.95;1.30;;;15.90;99.90;;;;;;5034202;28;20174;-83
2023/09/22 08:26:05;;;;;;;1.98;1.55;;;16.00;99.90;;;;;;5034310;28;20524;-83
2023/09/22 08:28:32;;;;;;;2.22;1.50;;;15.90;99.90;;;;;;5033167;28;20216;-83
2023/09/22 08:30:58;;;;;;;2.55;1.40;;;16.00;99.90;;;;;;5032702;28;20226;-82
2023/09/22 08:33:24;;;;;;;3.35;1.17;;;16.00;99.90;;;;;;5033927;28;20563;-82
2023/09/22 08:35:51;;;;;;;3.65;1.60;;;16.00;99.90;;;;;;5032974;28;20613;-83
2023/09/22 08:38:18;;;;;;;3.60;1.92;;;16.00;99.90;;;;;;5034179;28;20182;-82
2023/09/22 08:40:47;;;;;;;1.50;1.38;;;16.10;99.90;;;;;;5031995;28;20210;-82
2023/09/22 08:43:13;;;;;;;5.00;1.55;;;16.00;99.90;;;;;;5032975;28;20171;-83
2023/09/22 08:45:40;;;;;;;3.15;1.45;;;16.10;99.90;;;;;;5033578;28;20185;-84
2023/09/22 08:48:07;;;;;;;1.60;1.23;;;16.10;99.90;;;;;;5032684;28;20229;-86
2023/09/22 08:50:32;;;;;;;3.90;1.50;;;16.10;99.90;;;;;;5032819;28;20531;-83
2023/09/22 08:52:59;;;;;;;4.07;1.20;;;16.10;99.90;;;;;;5034049;28;20209;-82
2023/09/22 08:55:26;;;;;;;3.50;1.50;;;16.10;99.90;;;;;;5034137;28;20163;-80
2023/09/22 08:57:53;;;;;;;4.05;1.55;;;16.10;99.90;;;;;;5033567;28;20166;-83
2023/09/22 09:00:21;;;;;;;2.55;1.20;;;16.10;99.90;;;;;;5033695;28;20252;-82
2023/09/22 09:02:48;;;;;;;1.80;1.05;;;16.10;99.90;;;;;;5032606;28;20651;-82
2023/09/22 09:05:28;;;;;;;1.55;1.10;;;16.10;99.90;;;;;;5032600;28;20246;-83
2023/09/22 09:07:55;;;;;;;2.80;1.10;;;16.10;99.90;;;;;;5033824;28;20174;-82
2023/09/22 09:10:28;;;;;;;5.50;1.20;;;16.10;99.90;;;;;;5033810;28;20181;-82
2023/09/22 09:12:54;;;;;;;1.80;1.15;;;16.20;99.90;;;;;;5033354;28;20497;-82
2023/09/22 09:15:27;;;;;;;2.33;1.10;;;16.20;99.90;;;;;;5033814;28;20166;-82
2023/09/22 09:18:07;;;;;;;5.25;1.05;;;16.30;99.90;;;;;;5033513;28;20716;-82
2023/09/22 09:20:34;;;;;;;1.90;1.05;;;16.40;99.90;;;;;;5032278;28;20297;-81
2023/09/22 09:23:17;;;;;;;3.50;1.20;;;16.40;99.90;;;;;;5033615;28;20212;-82
2023/09/22 09:25:45;;;;;;;0.95;0.88;;;16.50;99.90;;;;;;5033753;28;20151;-84
2023/09/22 09:28:12;;;;;;;2.67;0.90;;;16.60;99.90;;;;;;5033412;28;20181;-83
2023/09/22 09:30:48;;;;;;;1.20;0.82;;;16.70;99.90;;;;;;5033662;28;20639;-83
2023/09/22 09:33:14;;;;;;;3.00;1.15;;;16.70;99.90;;;;;;5033674;28;20212;-81
2023/09/22 09:35:41;;;;;;;3.58;0.93;;;16.60;99.90;;;;;;5033747;28;20167;-84
2023/09/22 09:38:10;;;;;;;2.60;0.85;;;16.60;99.90;;;;;;5032187;28;20640;-82
2023/09/22 09:40:39;;;;;;;1.55;0.90;;;16.60;99.90;;;;;;5033631;28;20284;-83
2023/09/22 09:43:10;;;;;;;3.42;0.80;;;16.50;99.90;;;;;;5032016;28;20616;-83
2023/09/22 09:45:45;;;;;;;1.98;0.88;;;16.60;99.90;;;;;;5033561;28;20177;-83
2023/09/22 09:48:16;;;;;;;2.72;0.82;;;16.50;99.90;;;;;;5033693;28;20167;-82
2023/09/22 09:50:48;;;;;;;1.90;0.80;;;16.60;99.90;;;;;;5033688;28;20162;-83
2023/09/22 09:53:46;;;;;;;2.08;0.95;;;16.60;99.90;;;;;;5035852;28;20194;-84
2023/09/22 09:56:17;;;;;;;4.38;1.08;;;16.70;99.90;;;;;;5024055;28;20195;-84
2023/09/22 09:58:45;;;;;;;1.90;1.00;;;16.60;99.90;;;;;;5036773;28;20281;-83
2023/09/22 10:01:12;;;;;;;2.03;1.00;;;16.60;99.90;;;;;;5037035;28;20210;-84
2023/09/22 10:03:39;;;;;;;3.75;0.88;;;16.60;99.90;;;;;;5035866;28;20170;-81
2023/09/22 10:06:09;;;;;;;1.40;0.70;;;16.60;99.90;;;;;;5037004;28;20201;-83
2023/09/22 10:08:37;;;;;;;1.25;0.82;;;16.70;99.90;;;;;;5035687;28;20613;-82
2023/09/22 10:11:06;;;;;;;4.25;0.90;;;16.80;99.90;;;;;;5035511;28;20635;-82
2023/09/22 10:13:34;;;;;;;1.45;1.00;;;17.00;99.90;;;;;;5036431;28;20302;-81
2023/09/22 10:16:08;;;;;;;2.05;1.00;;;17.10;99.90;;;;;;5036691;28;20218;-82
2023/09/22 10:18:50;;;;;;;3.20;1.10;;;17.20;99.90;;;;;;5036790;28;20217;-83
2023/09/22 10:21:39;;;;;;;1.75;0.85;;;17.30;99.90;;;;;;5035429;28;20237;-83
2023/09/22 10:24:27;;;;;;;1.25;0.88;;;17.20;99.90;;;;;;5035529;28;20342;-82
2023/09/22 10:26:56;;;;;;;1.92;0.80;;;17.10;99.90;;;;;;5036622;28;20185;-85
2023/09/22 10:29:37;;;;;;;2.17;0.85;;;17.00;99.90;;;;;;5036416;28;20170;-84
2023/09/22 10:32:18;;;;;;;3.25;1.02;;;17.00;99.90;;;;;;5035135;28;20174;-82
2023/09/22 10:34:53;;;;;;;3.05;1.17;;;16.90;99.90;;;;;;5035185;28;20178;-82
2023/09/22 10:37:22;;;;;;;2.67;0.77;;;16.80;99.90;;;;;;5035074;28;20213;-81
2023/09/22 10:39:56;;;;;;;1.83;0.98;;;16.80;99.90;;;;;;5036225;28;20175;-84
2023/09/22 10:42:23;;;;;;;2.90;1.15;;;16.90;99.90;;;;;;5051387;28;20508;-81
2023/09/22 10:45:01;;;;;;;1.90;0.80;;;17.00;99.90;;;;;;5036060;28;20179;-81
2023/09/22 10:47:49;;;;;;;1.40;0.80;;;17.10;99.90;;;;;;5034966;28;20189;-81
2023/09/22 10:50:33;;;;;;;2.40;0.90;;;17.10;99.90;;;;;;5036271;28;20251;-80
2023/09/22 10:53:06;;;;;;;5.75;1.20;;;17.30;99.90;;;;;;5036045;28;20162;-81
2023/09/22 10:55:38;;;;;;;5.75;0.90;;;17.50;99.90;;;;;;5036038;28;20244;-81
2023/09/22 10:58:08;;;;;;;1.80;0.80;;;17.60;99.90;;;;;;5034467;28;20529;-82
2023/09/22 11:00:44;;;;;;;1.80;0.82;;;17.70;99.90;;;;;;5035911;28;20198;-81
2023/09/22 11:03:13;;;;;;;3.70;0.95;;;17.90;99.90;;;;;;5034290;28;20159;-81
2023/09/22 11:05:40;;;;;;;2.47;0.77;;;18.00;99.90;;;;;;5034641;28;20184;-82
2023/09/22 11:08:33;;;;;;;5.82;0.73;;;18.10;99.90;;;;;;5034185;28;20273;-81
2023/09/22 11:11:00;;;;;;;2.65;0.80;;;18.20;99.90;;;;;;5012537;28;20244;-83
2023/09/22 11:13:27;;;;;;;1.83;0.77;;;18.00;99.90;;;;;;5033920;28;20178;-82
2023/09/22 11:15:57;;;;;;;3.83;0.70;;;18.00;99.90;;;;;;5035351;28;20222;-81
2023/09/22 11:18:34;;;;;;;3.15;0.90;;;18.00;99.90;;;;;;5035514;28;20158;-81
2023/09/22 11:21:05;;;;;;;1.58;0.90;;;18.00;99.90;;;;;;5035620;28;20206;-80
2023/09/22 11:23:32;;;;;;;4.78;1.10;;;17.90;99.90;;;;;;5035949;28;20166;-82
2023/09/22 11:26:00;;;;;;;3.97;0.90;;;17.80;99.90;;;;;;5034233;28;20174;-81
2023/09/22 11:28:26;;;;;;;2.40;1.00;;;17.70;99.90;;;;;;5034796;28;20258;-82
2023/09/22 11:30:55;;;;;;;1.85;0.80;;;17.60;99.90;;;;;;5033617;28;20179;-82
2023/09/22 11:33:21;;;;;;;3.15;0.82;;;17.50;99.90;;;;;;5035180;28;20194;-85
2023/09/22 11:35:52;;;;;;;2.17;0.90;;;17.60;99.90;;;;;;5033150;28;20174;-82
2023/09/22 11:38:21;;;;;;;3.03;0.80;;;17.70;99.90;;;;;;5035511;28;20171;-82
2023/09/22 11:40:46;;;;;;;2.92;0.70;;;17.60;99.90;;;;;;5033759;28;20740;-82
2023/09/22 11:43:13;;;;;;;4.05;0.93;;;17.60;99.90;;;;;;5032874;28;20273;-83
2023/09/22 11:45:39;;;;;;;2.85;1.00;;;17.50;99.90;;;;;;5035111;28;20524;-83
2023/09/22 11:48:05;;;;;;;2.00;0.80;;;17.50;99.90;;;;;;5035013;28;20179;-82
2023/09/22 11:50:31;;;;;;;2.03;0.80;;;17.50;99.90;;;;;;5033741;28;20184;-82
2023/09/22 11:53:19;;;;;;;3.58;1.13;;;17.50;99.90;;;;;;5034909;28;20499;-82
2023/09/22 11:55:47;;;;;;;3.20;0.90;;;17.40;99.90;;;;;;5035054;28;20206;-82
2023/09/22 11:58:14;;;;;;;3.13;0.70;;;17.50;99.90;;;;;;5034627;28;20174;-83
2023/09/22 12:00:41;;;;;;;1.40;0.60;;;17.50;99.90;;;;;;5033560;28;20206;-82
2023/09/22 12:03:07;;;;;;;1.90;0.60;;;17.50;99.90;;;;;;5034796;28;20238;-82
2023/09/22 12:05:36;;;;;;;3.25;0.60;;;17.60;99.90;;;;;;5034681;28;20269;-82
2023/09/22 12:08:04;;;;;;;1.48;0.65;;;17.70;99.90;;;;;;5033096;28;20265;-82
2023/09/22 12:10:30;;;;;;;2.10;0.80;;;17.90;99.90;;;;;;5034650;28;20179;-82
2023/09/22 12:12:56;;;;;;;2.50;0.77;;;18.00;99.90;;;;;;5034339;28;20259;-82
2023/09/22 12:15:21;;;;;;;1.73;0.82;;;18.00;99.90;;;;;;5034175;28;20171;-82
2023/09/22 12:17:47;;;;;;;4.32;0.70;;;18.10;99.90;;;;;;5033039;28;20261;-83
2023/09/22 12:20:13;;;;;;;1.33;0.60;;;18.10;99.90;;;;;;5033247;28;20202;-83
2023/09/22 12:22:38;;;;;;;2.10;0.63;;;18.20;99.90;;;;;;5033140;28;20348;-82
2023/09/22 12:25:07;;;;;;;4.13;0.88;;;18.20;99.90;;;;;;5034510;28;20232;-83
2023/09/22 12:27:32;;;;;;;2.05;0.75;;;18.30;99.90;;;;;;5033166;28;20635;-82
2023/09/22 12:29:59;;;;;;;1.35;0.90;;;18.20;99.90;;;;;;5031326;28;20186;-81
2023/09/22 12:32:25;;;;;;;2.50;0.80;;;18.30;99.90;;;;;;5034317;28;20246;-79
2023/09/22 12:34:51;;;;;;;1.58;0.85;;;18.30;99.90;;;;;;5032026;28;20716;-81
2023/09/22 12:37:17;;;;;;;2.67;1.13;;;18.30;99.90;;;;;;5034262;28;20178;-81
2023/09/22 12:39:43;;;;;;;1.92;0.80;;;18.40;99.90;;;;;;5033830;28;20672;-82
2023/09/22 12:42:08;;;;;;;2.53;1.10;;;18.50;99.90;;;;;;5033401;28;20196;-82
2023/09/22 12:44:35;;;;;;;2.13;1.00;;;18.60;99.90;;;;;;5032975;28;20225;-83
2023/09/22 12:47:01;;;;;;;3.78;1.20;;;18.60;99.90;;;;;;5031869;28;20240;-82
2023/09/22 12:49:27;;;;;;;1.90;1.13;;;18.60;99.90;;;;;;5032831;28;20178;-82
2023/09/22 12:51:53;;;;;;;2.33;1.00;;;18.50;99.90;;;;;;5032849;28;20178;-82
2023/09/22 12:54:18;;;;;;;3.65;1.20;;;18.50;99.90;;;;;;5034224;28;20281;-83
2023/09/22 12:56:44;;;;;;;2.92;0.98;;;18.50;99.90;;;;;;5032568;28;20186;-83
2023/09/22 12:59:10;;;;;;;4.80;1.20;;;18.40;99.90;;;;;;5031993;28;20182;-83
2023/09/22 13:01:36;;;;;;;1.92;0.90;;;18.50;99.90;;;;;;5032624;28;20214;-84
2023/09/22 13:04:02;;;;;;;2.30;1.00;;;18.40;99.90;;;;;;5033561;28;20652;-81
2023/09/22 13:06:27;;;;;;;2.08;0.80;;;18.50;99.90;;;;;;5033696;28;20182;-82
2023/09/22 13:08:54;;;;;;;2.78;0.73;;;18.60;99.90;;;;;;5033859;28;20171;-83
2023/09/22 13:11:20;;;;;;;4.30;0.98;;;18.60;99.90;;;;;;5032583;28;20181;-81
2023/09/22 13:13:46;;;;;;;1.58;0.70;;;18.60;99.90;;;;;;5033789;28;20519;-82
2023/09/22 13:16:12;;;;;;;1.30;0.50;;;18.50;99.90;;;;;;5032287;28;20218;-83
2023/09/22 13:18:38;;;;;;;2.22;0.68;;;18.50;99.90;;;;;;5032277;28;20187;-83
2023/09/22 13:21:14;;;;;;;2.50;0.90;;;18.50;99.90;;;;;;5033426;28;20209;-83